Elliott, North Dakota
Current Conditions -  °F | °C
As of 3:35 PM on Friday 31 Oct 2014 (Local Time) from KGWR Reporting Station
Clear Clear  
Wind Chill: 35°   Ceiling: Unl
Heat Index: 41°   Visibility: 10mi
Dew Point: 23°   Wind: 9mph
Humidity: 49%   Direction: 140°SE
Pressure: 30.46"   Gusts: NA
Location:  46.3578°N, 97.5659°W
Report Text: KGWR 312035Z AUTO 14008KT 10SM CLR 05/M05 A3046 RMK A01 P000
Loading
Personal Weather Stations






























Interactive Weather Map
Tropical Storm Tracking
New forecast layout! Learn more

10-Day Weather Forecast

Advertisements
Track Severe Weather on mobile